createdAt,value
2018-03-03T00:00:01.819Z,64.22
2018-03-03T00:02:29.289Z,64.42
2018-03-03T00:04:56.778Z,64.47
2018-03-03T00:07:24.238Z,64.59
2018-03-03T00:09:51.722Z,64.53
2018-03-03T00:12:19.214Z,64.51
2018-03-03T00:14:46.701Z,65.02
2018-03-03T00:17:14.234Z,64.96
2018-03-03T00:19:41.739Z,65.48
2018-03-03T00:22:09.213Z,65.49
2018-03-03T00:24:36.675Z,65.65
2018-03-03T00:27:04.218Z,65.06
2018-03-03T00:29:31.783Z,64.80
2018-03-03T00:31:59.271Z,65.06
2018-03-03T00:34:26.777Z,66.21
2018-03-03T00:36:54.252Z,64.78
2018-03-03T00:39:21.751Z,64.95
2018-03-03T00:41:49.217Z,65.30
2018-03-03T00:44:16.682Z,65.49
2018-03-03T00:46:44.180Z,66.30
2018-03-03T00:49:11.686Z,65.71
2018-03-03T00:51:39.162Z,65.79
2018-03-03T00:54:06.652Z,65.04
2018-03-03T00:56:34.204Z,66.56
2018-03-03T00:59:01.799Z,68.55
2018-03-03T01:01:29.279Z,65.79
2018-03-03T01:03:56.757Z,66.87
2018-03-03T01:06:24.253Z,65.62
2018-03-03T01:08:51.810Z,67.49
2018-03-03T01:11:19.297Z,69.20
2018-03-03T01:13:46.790Z,67.10
2018-03-03T01:16:14.283Z,67.70
2018-03-03T01:18:41.802Z,65.66
2018-03-03T01:21:09.291Z,64.51
2018-03-03T01:23:36.774Z,64.83
2018-03-03T01:26:04.264Z,65.23
2018-03-03T01:28:31.755Z,65.61
2018-03-03T01:30:59.335Z,65.80
2018-03-03T01:33:26.806Z,65.95
2018-03-03T01:35:54.337Z,66.29
2018-03-03T01:38:21.815Z,66.15
2018-03-03T01:40:49.311Z,66.35
2018-03-03T01:43:16.785Z,66.28
2018-03-03T01:45:44.273Z,66.31
2018-03-03T01:48:11.765Z,66.17
2018-03-03T01:53:29.810Z,66.38
2018-03-03T01:55:57.290Z,66.75
2018-03-03T01:58:24.759Z,66.30
2018-03-03T02:00:52.271Z,66.72
2018-03-03T02:03:19.756Z,66.28
2018-03-03T02:05:47.231Z,66.33
2018-03-03T02:08:14.737Z,66.54
2018-03-03T02:10:42.206Z,66.61
2018-03-03T02:13:09.761Z,66.59
2018-03-03T02:15:37.305Z,67.15
2018-03-03T02:18:04.770Z,66.88
2018-03-03T02:20:32.302Z,66.41
2018-03-03T02:22:59.870Z,66.19
2018-03-03T02:25:27.347Z,66.14
2018-03-03T02:27:54.850Z,66.46
2018-03-03T02:30:22.336Z,66.71
2018-03-03T02:32:49.804Z,67.00
2018-03-03T02:35:17.294Z,67.36
2018-03-03T02:37:44.788Z,67.11
2018-03-03T02:40:12.275Z,67.08
2018-03-03T02:42:39.742Z,67.15
2018-03-03T02:45:07.234Z,67.64
2018-03-03T02:47:34.713Z,67.41
2018-03-03T02:50:02.199Z,67.34
2018-03-03T02:52:29.706Z,67.62
2018-03-03T02:54:57.186Z,67.77
2018-03-03T02:57:24.690Z,67.83
2018-03-03T02:59:52.358Z,68.04
2018-03-03T03:02:19.914Z,67.55
2018-03-03T03:04:47.388Z,67.69
2018-03-03T03:07:14.874Z,67.68
2018-03-03T03:09:42.365Z,67.61
2018-03-03T03:12:09.855Z,67.70
2018-03-03T03:14:37.356Z,67.69
2018-03-03T03:17:04.834Z,68.05
2018-03-03T03:19:32.327Z,67.95
2018-03-03T03:21:59.811Z,68.14
2018-03-03T03:24:27.288Z,68.37
2018-03-03T03:26:54.783Z,67.98
2018-03-03T03:29:22.283Z,67.91
2018-03-03T03:31:49.753Z,67.66
2018-03-03T03:34:17.260Z,67.99
2018-03-03T03:36:44.751Z,68.64
2018-03-03T03:39:12.317Z,68.22
2018-03-03T03:41:39.826Z,68.10
2018-03-03T03:44:07.302Z,68.20
2018-03-03T03:46:34.780Z,68.98
2018-03-03T03:49:02.288Z,68.16
2018-03-03T03:51:29.774Z,68.32
2018-03-03T03:53:57.266Z,68.21
2018-03-03T03:56:24.790Z,68.30
2018-03-03T03:58:52.283Z,68.58
2018-03-03T04:01:19.763Z,68.46
2018-03-03T04:03:47.365Z,68.28
2018-03-03T04:06:14.846Z,68.34
2018-03-03T04:08:42.314Z,68.28
2018-03-03T04:11:09.797Z,68.50
2018-03-03T04:13:37.264Z,68.47
2018-03-03T04:16:04.762Z,68.61
2018-03-03T04:18:32.298Z,68.90
2018-03-03T04:20:59.766Z,68.96
2018-03-03T04:23:27.272Z,68.89
2018-03-03T04:25:54.744Z,69.01
2018-03-03T04:28:22.240Z,68.89
2018-03-03T04:30:49.737Z,69.13
2018-03-03T04:33:17.198Z,69.10
2018-03-03T04:35:44.690Z,69.24
2018-03-03T04:38:12.155Z,69.35
2018-03-03T04:40:39.652Z,69.28
2018-03-03T04:43:07.175Z,69.28
2018-03-03T04:45:34.653Z,69.73
2018-03-03T04:48:02.144Z,70.02
2018-03-03T04:50:29.641Z,70.05
2018-03-03T04:52:57.126Z,69.72
2018-03-03T04:55:24.595Z,69.72
2018-03-03T04:57:52.082Z,69.98
2018-03-03T05:00:25.952Z,69.96
2018-03-03T05:02:56.258Z,70.09
2018-03-03T05:08:27.089Z,70.25
2018-03-03T05:10:54.901Z,70.55
2018-03-03T05:13:24.138Z,70.47
2018-03-03T05:16:08.370Z,70.65
2018-03-03T05:18:41.309Z,71.19
2018-03-03T05:24:21.606Z,71.41
2018-03-03T05:26:54.795Z,71.27
2018-03-03T05:29:27.865Z,71.23
2018-03-03T05:32:01.005Z,71.44
2018-03-03T05:34:47.150Z,71.34
2018-03-03T05:37:20.279Z,71.68
2018-03-03T05:39:53.485Z,72.03
2018-03-03T05:42:26.421Z,72.11
2018-03-03T05:48:00.685Z,72.48
2018-03-03T05:50:33.955Z,72.53
2018-03-03T05:53:07.099Z,72.43
2018-03-03T05:55:37.433Z,72.12
2018-03-03T06:01:12.515Z,72.27
2018-03-03T06:03:45.675Z,72.24
2018-03-03T06:06:23.032Z,72.16
2018-03-03T06:08:51.465Z,72.31
2018-03-03T06:11:18.926Z,72.27
2018-03-03T06:13:46.426Z,72.09
2018-03-03T06:16:13.993Z,72.27
2018-03-03T06:18:41.471Z,72.09
2018-03-03T06:21:08.939Z,72.23
2018-03-03T06:23:36.446Z,71.85
2018-03-03T06:26:03.908Z,71.72
2018-03-03T06:28:31.438Z,72.04
2018-03-03T06:30:58.936Z,71.71
2018-03-03T06:33:26.423Z,71.65
2018-03-03T06:35:53.915Z,71.32
2018-03-03T06:38:21.496Z,71.71
2018-03-03T06:40:48.965Z,71.48
2018-03-03T06:43:16.458Z,71.35
2018-03-03T06:45:43.955Z,71.46
2018-03-03T06:48:11.456Z,71.21
2018-03-03T06:50:38.957Z,70.61
2018-03-03T06:53:06.426Z,70.86
2018-03-03T06:55:33.897Z,70.45
2018-03-03T06:58:01.409Z,70.27
2018-03-03T07:00:28.967Z,70.19
2018-03-03T07:02:56.437Z,69.62
2018-03-03T07:05:23.942Z,69.61
2018-03-03T07:07:51.441Z,69.35
2018-03-03T07:10:18.930Z,69.25
2018-03-03T07:12:46.424Z,68.83
2018-03-03T07:15:14.370Z,68.89
2018-03-03T07:17:41.848Z,68.88
2018-03-03T07:20:09.362Z,68.33
2018-03-03T07:22:36.933Z,68.24
2018-03-03T07:25:04.430Z,68.06
2018-03-03T07:27:31.934Z,67.75
2018-03-03T07:29:59.442Z,67.28
2018-03-03T07:32:26.906Z,67.81
2018-03-03T07:34:54.394Z,67.24
2018-03-03T07:37:21.974Z,67.29
2018-03-03T07:39:49.529Z,67.14
2018-03-03T07:42:17.002Z,66.36
2018-03-03T07:44:44.478Z,65.97
2018-03-03T07:47:11.950Z,65.63
2018-03-03T07:49:39.440Z,65.30
2018-03-03T07:52:06.905Z,64.45
2018-03-03T07:54:34.369Z,63.91
2018-03-03T07:57:11.774Z,63.18
2018-03-03T07:59:39.303Z,63.28
2018-03-03T08:02:06.767Z,63.02
2018-03-03T08:04:34.262Z,63.06
2018-03-03T08:07:01.768Z,63.07
2018-03-03T08:09:29.250Z,63.45
2018-03-03T08:11:56.729Z,62.82
2018-03-03T08:14:24.286Z,62.68
2018-03-03T08:16:51.771Z,62.29
2018-03-03T08:19:19.250Z,61.79
2018-03-03T08:21:46.737Z,62.95
2018-03-03T08:24:14.307Z,61.29
2018-03-03T08:26:41.913Z,60.70
2018-03-03T08:29:09.387Z,60.03
2018-03-03T08:31:36.871Z,59.53
2018-03-03T08:34:04.442Z,58.53
2018-03-03T08:36:31.922Z,57.55
2018-03-03T08:38:59.386Z,56.95
2018-03-03T08:41:26.924Z,56.96
2018-03-03T08:43:54.437Z,57.60
2018-03-03T08:46:21.958Z,57.81
2018-03-03T08:48:49.601Z,56.82
2018-03-03T08:51:17.077Z,55.68
2018-03-03T08:53:44.610Z,54.39
2018-03-03T08:56:12.121Z,53.80
2018-03-03T08:58:39.586Z,53.53
2018-03-03T09:01:07.082Z,54.27
2018-03-03T09:03:35.304Z,53.91
2018-03-03T09:06:02.799Z,54.22
2018-03-03T09:08:30.267Z,53.70
2018-03-03T09:10:57.805Z,53.06
2018-03-03T09:13:25.350Z,53.69
2018-03-03T09:15:52.897Z,53.30
2018-03-03T09:18:20.407Z,52.65
2018-03-03T09:20:47.956Z,52.25
2018-03-03T09:23:15.538Z,52.53
2018-03-03T09:25:43.092Z,53.34
2018-03-03T09:28:10.563Z,53.40
2018-03-03T09:30:38.066Z,53.46
2018-03-03T09:33:05.559Z,53.10
2018-03-03T09:35:33.032Z,52.36
2018-03-03T09:38:00.557Z,51.76
2018-03-03T09:40:28.045Z,51.25
2018-03-03T09:42:55.546Z,51.23
2018-03-03T09:45:23.041Z,51.06
2018-03-03T09:47:50.581Z,50.86
2018-03-03T09:50:18.062Z,51.71
2018-03-03T09:52:45.539Z,52.09
2018-03-03T09:55:13.072Z,52.18
2018-03-03T09:57:40.660Z,52.48
2018-03-03T10:00:08.154Z,51.80
2018-03-03T10:02:35.665Z,50.35
2018-03-03T10:05:03.228Z,50.18
2018-03-03T10:07:30.697Z,50.23
2018-03-03T10:09:58.187Z,50.10
2018-03-03T10:12:25.678Z,49.97
2018-03-03T10:14:53.295Z,50.12
2018-03-03T10:17:20.776Z,49.87
2018-03-03T10:19:48.362Z,49.92
2018-03-03T10:22:15.846Z,50.01
2018-03-03T10:24:43.370Z,49.77
2018-03-03T10:27:10.838Z,49.52
2018-03-03T10:29:38.317Z,48.89
2018-03-03T10:32:05.812Z,48.52
2018-03-03T10:34:33.283Z,47.91
2018-03-03T10:37:00.782Z,47.48
2018-03-03T10:39:28.298Z,47.90
2018-03-03T10:41:55.785Z,47.46
2018-03-03T10:44:23.319Z,47.12
2018-03-03T10:46:50.798Z,46.83
2018-03-03T10:49:18.286Z,47.20
2018-03-03T10:51:45.817Z,47.76
2018-03-03T10:54:13.281Z,46.88
2018-03-03T10:56:40.814Z,46.24
2018-03-03T10:59:08.420Z,45.89
2018-03-03T11:01:35.956Z,45.93
2018-03-03T11:04:05.941Z,45.77
2018-03-03T11:06:33.604Z,46.34
2018-03-03T11:09:01.095Z,45.99
2018-03-03T11:11:28.641Z,45.44
2018-03-03T11:13:56.312Z,45.36
2018-03-03T11:16:23.802Z,45.43
2018-03-03T11:18:51.267Z,45.91
2018-03-03T11:21:19.044Z,46.31
2018-03-03T11:23:46.599Z,46.17
2018-03-03T11:26:14.098Z,46.16
2018-03-03T11:28:41.594Z,45.47
2018-03-03T11:31:09.054Z,45.46
2018-03-03T11:33:36.584Z,45.15
2018-03-03T11:36:04.094Z,45.40
2018-03-03T11:38:31.553Z,45.90
2018-03-03T11:40:59.341Z,45.55
2018-03-03T11:43:26.850Z,44.48
2018-03-03T11:45:54.375Z,44.59
2018-03-03T11:48:21.889Z,44.81
2018-03-03T11:50:49.377Z,44.56
2018-03-03T11:53:16.985Z,44.89
2018-03-03T11:55:44.458Z,45.30
2018-03-03T11:58:11.954Z,45.91
2018-03-03T12:00:39.437Z,45.20
2018-03-03T12:03:06.925Z,44.73
2018-03-03T12:05:34.460Z,44.80
2018-03-03T12:08:01.944Z,44.80
2018-03-03T12:10:29.430Z,45.01
2018-03-03T12:12:57.010Z,44.94
2018-03-03T12:15:24.517Z,44.42
2018-03-03T12:17:52.051Z,43.50
2018-03-03T12:20:19.616Z,42.66
2018-03-03T12:22:47.086Z,42.03
2018-03-03T12:25:14.567Z,42.20
2018-03-03T12:27:42.055Z,42.26
2018-03-03T12:30:09.584Z,42.20
2018-03-03T12:32:37.045Z,41.91
2018-03-03T12:35:04.556Z,41.53
2018-03-03T12:37:32.110Z,41.72
2018-03-03T12:39:59.570Z,42.07
2018-03-03T12:42:27.073Z,41.90
2018-03-03T12:44:54.545Z,41.88
2018-03-03T12:47:22.033Z,41.65
2018-03-03T12:49:49.491Z,41.80
2018-03-03T12:52:17.007Z,41.67
2018-03-03T12:54:44.524Z,41.61
2018-03-03T12:57:12.112Z,42.18
2018-03-03T12:59:39.684Z,42.30
2018-03-03T13:02:07.159Z,42.43
2018-03-03T13:04:35.192Z,43.36
2018-03-03T13:07:02.693Z,43.23
2018-03-03T13:09:30.151Z,43.70
2018-03-03T13:11:57.614Z,44.43
2018-03-03T13:14:25.109Z,43.48
2018-03-03T13:16:52.658Z,43.14
2018-03-03T13:19:20.142Z,43.44
2018-03-03T13:21:47.623Z,43.62
2018-03-03T13:24:15.109Z,44.04
2018-03-03T13:26:42.665Z,43.98
2018-03-03T13:29:10.146Z,43.67
2018-03-03T13:31:37.635Z,43.25
2018-03-03T13:34:05.132Z,43.99
2018-03-03T13:36:32.613Z,44.53
2018-03-03T13:39:00.230Z,44.55
2018-03-03T13:41:27.710Z,44.72
2018-03-03T13:43:55.175Z,44.91
2018-03-03T13:46:22.630Z,44.23
2018-03-03T13:48:50.114Z,43.84
2018-03-03T13:51:17.588Z,43.94
2018-03-03T13:53:45.110Z,44.19
2018-03-03T13:56:12.571Z,44.68
2018-03-03T13:58:40.047Z,44.80
2018-03-03T14:01:07.664Z,44.56
2018-03-03T14:03:35.094Z,44.19
2018-03-03T14:06:02.636Z,44.65
2018-03-03T14:08:30.110Z,44.63
2018-03-03T14:10:57.580Z,44.26
2018-03-03T14:13:25.095Z,44.46
2018-03-03T14:15:52.561Z,45.27
2018-03-03T14:18:20.022Z,45.75
2018-03-03T14:20:47.891Z,46.25
2018-03-03T14:23:15.466Z,46.08
2018-03-03T14:25:42.924Z,45.71
2018-03-03T14:28:10.449Z,44.84
2018-03-03T14:30:37.910Z,44.86
2018-03-03T14:33:05.466Z,44.72
2018-03-03T14:35:33.073Z,45.51
2018-03-03T14:38:00.531Z,45.72
2018-03-03T14:40:28.002Z,45.08
2018-03-03T14:42:55.609Z,45.51
2018-03-03T14:45:23.173Z,44.56
2018-03-03T14:47:50.729Z,44.51
2018-03-03T14:50:18.203Z,45.55
2018-03-03T14:52:45.711Z,46.22
2018-03-03T14:55:13.183Z,46.34
2018-03-03T14:57:40.665Z,46.61
2018-03-03T15:00:08.153Z,46.28
2018-03-03T15:02:35.715Z,45.93
2018-03-03T15:05:03.194Z,45.60
2018-03-03T15:07:30.694Z,46.23
2018-03-03T15:09:58.189Z,46.57
2018-03-03T15:12:25.654Z,46.65
2018-03-03T15:14:53.167Z,46.70
2018-03-03T15:17:20.636Z,46.93
2018-03-03T15:19:48.164Z,47.10
2018-03-03T15:22:15.617Z,47.11
2018-03-03T15:24:43.115Z,46.86
2018-03-03T15:27:10.603Z,46.90
2018-03-03T15:29:38.063Z,46.99
2018-03-03T15:32:05.605Z,47.04
2018-03-03T15:34:33.075Z,46.85
2018-03-03T15:37:00.665Z,47.47
2018-03-03T15:39:28.183Z,47.77
2018-03-03T15:41:55.647Z,48.10
2018-03-03T15:44:23.106Z,48.12
2018-03-03T15:46:50.582Z,48.30
2018-03-03T15:49:18.074Z,48.45
2018-03-03T15:51:45.561Z,48.47
2018-03-03T15:54:13.040Z,48.77
2018-03-03T15:56:40.541Z,48.44
2018-03-03T15:59:08.024Z,48.48
2018-03-03T16:01:35.578Z,48.69
2018-03-03T16:04:03.080Z,48.70
2018-03-03T16:06:30.588Z,48.97
2018-03-03T16:08:58.111Z,48.91
2018-03-03T16:11:25.832Z,48.91
2018-03-03T16:13:53.368Z,49.09
2018-03-03T16:16:20.830Z,49.25
2018-03-03T16:18:48.327Z,49.30
2018-03-03T16:21:15.813Z,49.20
2018-03-03T16:23:43.291Z,49.41
2018-03-03T16:26:10.782Z,49.41
2018-03-03T16:28:38.248Z,49.54
2018-03-03T16:31:05.722Z,49.72
2018-03-03T16:33:33.213Z,49.74
2018-03-03T16:36:00.699Z,49.93
2018-03-03T16:38:28.237Z,49.88
2018-03-03T16:40:55.735Z,50.06
2018-03-03T16:43:23.210Z,49.79
2018-03-03T16:45:50.712Z,50.09
2018-03-03T16:48:18.259Z,50.26
2018-03-03T16:50:45.753Z,50.50
2018-03-03T16:53:13.235Z,50.82
2018-03-03T16:55:40.845Z,50.75
2018-03-03T16:58:08.325Z,50.79
2018-03-03T17:00:35.788Z,50.67
2018-03-03T17:03:03.282Z,50.69
2018-03-03T17:05:30.755Z,50.75
2018-03-03T17:07:58.230Z,51.03
2018-03-03T17:10:25.725Z,51.22
2018-03-03T17:12:53.291Z,51.24
2018-03-03T17:15:20.771Z,51.21
2018-03-03T17:17:48.266Z,51.23
2018-03-03T17:20:15.726Z,51.42
2018-03-03T17:22:43.459Z,51.79
2018-03-03T17:25:11.047Z,51.72
2018-03-03T17:27:38.606Z,51.88
2018-03-03T17:30:06.086Z,52.54
2018-03-03T17:32:33.621Z,52.08
2018-03-03T17:35:01.087Z,51.87
2018-03-03T17:37:28.564Z,52.07
2018-03-03T17:39:56.046Z,51.99
2018-03-03T17:42:23.558Z,51.76
2018-03-03T17:44:51.057Z,52.05
2018-03-03T17:47:18.540Z,52.26
2018-03-03T17:49:46.018Z,52.68
2018-03-03T17:52:13.494Z,52.64
2018-03-03T17:54:40.989Z,52.68
2018-03-03T17:57:08.452Z,52.55
2018-03-03T17:59:35.943Z,52.46
2018-03-03T18:02:03.426Z,52.70
2018-03-03T18:04:30.930Z,52.75
2018-03-03T18:06:58.752Z,52.89
2018-03-03T18:09:26.399Z,52.95
2018-03-03T18:11:59.847Z,53.04
2018-03-03T18:14:27.304Z,53.16
2018-03-03T18:16:54.858Z,53.38
2018-03-03T18:19:39.957Z,53.43
2018-03-03T18:22:07.536Z,53.52
2018-03-03T18:24:37.958Z,53.58
2018-03-03T18:27:05.457Z,53.46
2018-03-03T18:29:32.951Z,54.14
2018-03-03T18:32:00.438Z,54.27
2018-03-03T18:34:27.954Z,54.11
2018-03-03T18:36:55.434Z,54.18
2018-03-03T18:39:22.980Z,53.84
2018-03-03T18:41:50.423Z,53.96
2018-03-03T18:44:17.954Z,54.32
2018-03-03T18:46:45.446Z,54.38
2018-03-03T18:49:13.042Z,54.55
2018-03-03T18:51:40.661Z,54.58
2018-03-03T18:54:08.126Z,54.52
2018-03-03T18:56:36.093Z,54.60
2018-03-03T18:59:03.558Z,54.93
2018-03-03T19:01:31.067Z,54.85
2018-03-03T19:03:58.562Z,55.02
2018-03-03T19:06:26.118Z,55.14
2018-03-03T19:08:53.646Z,55.21
2018-03-03T19:11:21.141Z,55.62
2018-03-03T19:13:48.620Z,55.61
2018-03-03T19:16:16.140Z,55.73
2018-03-03T19:18:43.648Z,55.57
2018-03-03T19:21:11.165Z,55.57
2018-03-03T19:23:38.681Z,55.67
2018-03-03T19:26:06.214Z,55.74
2018-03-03T19:31:07.610Z,56.03
2018-03-03T19:33:35.106Z,56.23
2018-03-03T19:36:02.593Z,56.02
2018-03-03T19:38:30.188Z,55.97
2018-03-03T19:40:57.691Z,56.10
2018-03-03T19:43:25.166Z,56.24
2018-03-03T19:45:52.659Z,56.20
2018-03-03T19:48:20.151Z,56.22
2018-03-03T19:50:47.656Z,56.28
2018-03-03T19:53:15.161Z,56.45
2018-03-03T19:55:42.651Z,56.45
2018-03-03T19:58:10.134Z,56.45
2018-03-03T20:00:37.711Z,56.53
2018-03-03T20:03:05.251Z,56.89
2018-03-03T20:05:32.726Z,56.78
2018-03-03T20:08:00.240Z,57.04
2018-03-03T20:10:27.722Z,57.10
2018-03-03T20:12:55.243Z,56.89
2018-03-03T20:15:22.758Z,57.42
2018-03-03T20:17:50.243Z,57.15
2018-03-03T20:20:17.739Z,57.10
2018-03-03T20:22:45.243Z,57.30
2018-03-03T20:25:12.713Z,57.19
2018-03-03T20:27:40.206Z,57.33
2018-03-03T20:30:08.054Z,57.77
2018-03-03T20:32:35.569Z,57.85
2018-03-03T20:35:03.079Z,57.90
2018-03-03T20:37:30.551Z,57.92
2018-03-03T20:39:58.047Z,58.15
2018-03-03T20:42:26.432Z,58.34
2018-03-03T20:44:53.904Z,58.21
2018-03-03T20:47:21.387Z,58.33
2018-03-03T20:49:48.937Z,60.03
2018-03-03T20:52:16.419Z,58.28
2018-03-03T20:54:43.893Z,58.59
2018-03-03T20:57:11.517Z,58.89
2018-03-03T20:59:39.051Z,58.41
2018-03-03T21:02:06.555Z,58.44
2018-03-03T21:04:34.094Z,58.45
2018-03-03T21:07:01.604Z,58.39
2018-03-03T21:09:29.079Z,58.49
2018-03-03T21:11:59.502Z,58.53
2018-03-03T21:14:27.002Z,58.70
2018-03-03T21:16:54.477Z,58.96
2018-03-03T21:19:21.969Z,58.96
2018-03-03T21:21:49.540Z,59.33
2018-03-03T21:24:17.014Z,59.10
2018-03-03T21:26:44.495Z,59.58
2018-03-03T21:29:11.986Z,59.58
2018-03-03T21:31:39.530Z,59.50
2018-03-03T21:34:07.006Z,59.48
2018-03-03T21:36:34.523Z,59.64
2018-03-03T21:39:02.168Z,59.36
2018-03-03T21:41:29.649Z,59.55
2018-03-03T21:43:57.180Z,59.37
2018-03-03T21:46:24.824Z,59.79
2018-03-03T21:48:52.323Z,59.41
2018-03-03T21:51:19.813Z,60.15
2018-03-03T21:53:47.385Z,59.76
2018-03-03T21:56:14.860Z,60.08
2018-03-03T21:58:42.367Z,59.86
2018-03-03T22:01:09.873Z,59.55
2018-03-03T22:03:37.377Z,59.94
2018-03-03T22:06:04.898Z,59.87
2018-03-03T22:08:32.410Z,60.44
2018-03-03T22:11:00.169Z,60.77
2018-03-03T22:13:27.667Z,61.23
2018-03-03T22:15:55.779Z,60.10
2018-03-03T22:18:23.477Z,60.37
2018-03-03T22:20:51.072Z,60.70
2018-03-03T22:23:18.566Z,59.94
2018-03-03T22:25:46.086Z,59.73
2018-03-03T22:28:13.606Z,59.69
2018-03-03T22:30:41.084Z,60.02
2018-03-03T22:33:08.644Z,59.57
2018-03-03T22:35:36.151Z,59.63
2018-03-03T22:38:03.638Z,59.60
2018-03-03T22:40:31.149Z,59.44
2018-03-03T22:42:58.729Z,59.84
2018-03-03T22:45:26.243Z,59.88
2018-03-03T22:47:53.830Z,59.53
2018-03-03T22:50:21.408Z,59.93
2018-03-03T22:52:48.912Z,59.67
2018-03-03T22:55:16.399Z,59.43
2018-03-03T22:57:43.887Z,59.94
2018-03-03T23:00:11.374Z,60.34
2018-03-03T23:02:38.920Z,60.19
2018-03-03T23:05:06.455Z,59.93
2018-03-03T23:07:33.959Z,60.11
2018-03-03T23:10:01.508Z,59.72
2018-03-03T23:12:29.004Z,60.14
2018-03-03T23:14:56.543Z,60.45
2018-03-03T23:17:24.027Z,60.24
2018-03-03T23:19:51.521Z,60.11
2018-03-03T23:22:19.058Z,59.72
2018-03-03T23:24:46.533Z,59.98
2018-03-03T23:27:14.110Z,60.15
2018-03-03T23:29:41.580Z,59.92
2018-03-03T23:32:09.053Z,60.02
2018-03-03T23:34:36.550Z,59.99
2018-03-03T23:37:04.046Z,59.80
2018-03-03T23:39:31.536Z,60.24
2018-03-03T23:41:59.006Z,60.49
2018-03-03T23:44:26.545Z,61.02
2018-03-03T23:46:54.032Z,60.07
2018-03-03T23:49:21.554Z,59.87
2018-03-03T23:51:49.043Z,60.35
2018-03-03T23:54:16.548Z,60.70
2018-03-03T23:56:44.315Z,60.75
2018-03-03T23:59:11.845Z,60.97
